createdAt,value
2023-04-19T00:02:18.909Z,9.73
2023-04-19T00:05:05.451Z,10.77
2023-04-19T00:07:54.322Z,10.13
2023-04-19T00:10:40.082Z,10.38
2023-04-19T00:13:25.540Z,9.80
2023-04-19T00:16:11.112Z,10.63
2023-04-19T00:18:56.868Z,11.02
2023-04-19T00:21:42.178Z,10.10
2023-04-19T00:24:27.621Z,10.15
2023-04-19T00:27:13.216Z,10.07
2023-04-19T00:29:58.648Z,10.02
2023-04-19T00:32:44.000Z,10.77
2023-04-19T00:35:29.535Z,10.30
2023-04-19T00:38:15.650Z,10.52
2023-04-19T00:41:03.813Z,11.13
2023-04-19T00:43:49.317Z,11.02
2023-04-19T00:46:36.450Z,10.20
2023-04-19T00:49:23.635Z,10.27
2023-04-19T00:52:08.949Z,10.98
2023-04-19T00:54:57.208Z,11.25
2023-04-19T00:57:42.693Z,10.27
2023-04-19T01:00:28.310Z,11.43
2023-04-19T01:03:13.947Z,11.75
2023-04-19T01:05:59.621Z,11.63
2023-04-19T01:08:46.369Z,11.00
2023-04-19T01:11:34.391Z,11.15
2023-04-19T01:14:20.339Z,11.10
2023-04-19T01:17:07.444Z,10.75
2023-04-19T01:20:03.873Z,11.07
2023-04-19T01:22:52.352Z,11.73
2023-04-19T01:25:40.611Z,10.82
2023-04-19T01:28:26.324Z,11.32
2023-04-19T01:31:11.746Z,11.27
2023-04-19T01:33:57.205Z,12.20
2023-04-19T01:36:42.558Z,10.43
2023-04-19T01:39:28.200Z,10.40
2023-04-19T01:42:13.655Z,10.48
2023-04-19T01:44:58.998Z,10.70
2023-04-19T01:47:48.251Z,10.65
2023-04-19T01:50:37.269Z,11.30
2023-04-19T01:53:23.558Z,11.38
2023-04-19T01:56:09.004Z,11.73
2023-04-19T01:58:56.769Z,11.18
2023-04-19T02:01:42.162Z,12.20
2023-04-19T02:04:27.422Z,11.63
2023-04-19T02:07:13.335Z,11.20
2023-04-19T02:09:59.748Z,12.38
2023-04-19T02:12:44.926Z,12.60
2023-04-19T02:15:30.547Z,11.77
2023-04-19T02:18:17.500Z,12.85
2023-04-19T02:21:05.673Z,12.18
2023-04-19T02:23:51.105Z,13.23
2023-04-19T02:26:36.669Z,12.52
2023-04-19T02:29:23.165Z,12.70
2023-04-19T02:32:08.536Z,13.80
2023-04-19T02:34:54.093Z,12.88
2023-04-19T02:37:39.596Z,12.25
2023-04-19T02:40:25.812Z,13.15
2023-04-19T02:43:11.404Z,12.57
2023-04-19T02:45:58.572Z,12.55
2023-04-19T02:48:44.030Z,12.43
2023-04-19T02:51:29.901Z,12.43
2023-04-19T02:54:15.936Z,12.07
2023-04-19T02:57:03.356Z,11.98
2023-04-19T02:59:49.090Z,12.98
2023-04-19T03:02:34.833Z,12.98
2023-04-19T03:05:22.023Z,13.00
2023-04-19T03:08:07.709Z,12.55
2023-04-19T03:10:53.469Z,13.10
2023-04-19T03:13:40.850Z,12.65
2023-04-19T03:16:27.200Z,12.55
2023-04-19T03:19:12.951Z,12.15
2023-04-19T03:22:05.093Z,12.45
2023-04-19T03:24:54.412Z,13.25
2023-04-19T03:27:42.212Z,12.52
2023-04-19T03:30:31.245Z,12.27
2023-04-19T03:33:16.594Z,12.18
2023-04-19T03:36:02.227Z,12.40
2023-04-19T03:38:47.576Z,13.80
2023-04-19T03:41:40.837Z,12.38
2023-04-19T03:44:36.912Z,12.13
2023-04-19T03:47:24.638Z,11.60
2023-04-19T03:50:13.982Z,10.82
2023-04-19T03:53:04.244Z,12.43
2023-04-19T03:55:50.356Z,12.05
2023-04-19T03:58:37.645Z,11.52
2023-04-19T04:01:26.925Z,11.45
2023-04-19T04:04:13.472Z,11.20
2023-04-19T04:06:59.318Z,11.18
2023-04-19T04:09:46.906Z,11.77
2023-04-19T04:12:41.530Z,11.82
2023-04-19T04:15:29.509Z,11.15
2023-04-19T04:18:16.360Z,11.43
2023-04-19T04:21:01.784Z,10.15
2023-04-19T04:23:50.101Z,10.55
2023-04-19T04:26:57.907Z,10.80
2023-04-19T04:29:49.642Z,10.02
2023-04-19T04:32:36.030Z,10.98
2023-04-19T04:35:26.258Z,10.70
2023-04-19T04:38:24.544Z,10.95
2023-04-19T04:41:12.552Z,11.02
2023-04-19T04:44:23.045Z,9.80
2023-04-19T04:47:06.492Z,10.57
2023-04-19T04:50:02.439Z,10.45
2023-04-19T04:52:48.519Z,10.07
2023-04-19T04:55:42.449Z,9.88
2023-04-19T04:58:28.268Z,9.75
2023-04-19T05:01:21.557Z,10.35
2023-04-19T05:04:07.209Z,9.50
2023-04-19T05:06:52.785Z,10.10
2023-04-19T05:09:45.395Z,10.85
2023-04-19T05:12:35.184Z,9.90
2023-04-19T05:15:20.906Z,9.30
2023-04-19T05:18:10.239Z,9.68
2023-04-19T05:21:00.394Z,9.93
2023-04-19T05:23:50.054Z,9.57
2023-04-19T05:26:36.667Z,9.20
2023-04-19T05:29:23.578Z,9.30
2023-04-19T05:32:12.094Z,8.95
2023-04-19T05:35:03.748Z,8.90
2023-04-19T05:37:49.017Z,8.70
2023-04-19T05:40:39.383Z,8.23
2023-04-19T05:43:25.177Z,9.60
2023-04-19T05:46:10.653Z,8.93
2023-04-19T05:48:55.987Z,8.88
2023-04-19T05:52:00.546Z,8.73
2023-04-19T05:54:57.936Z,9.10
2023-04-19T05:57:43.640Z,9.10
2023-04-19T06:00:29.051Z,8.80
2023-04-19T06:03:22.464Z,9.07
2023-04-19T06:06:11.459Z,9.23
2023-04-19T06:08:57.204Z,9.35
2023-04-19T06:11:49.972Z,8.93
2023-04-19T06:14:38.109Z,9.20
2023-04-19T06:17:25.300Z,9.32
2023-04-19T06:20:11.026Z,9.85
2023-04-19T06:22:56.431Z,9.20
2023-04-19T06:25:44.713Z,10.02
2023-04-19T06:28:30.090Z,9.32
2023-04-19T06:31:15.581Z,8.70
2023-04-19T06:34:00.865Z,8.98
2023-04-19T06:36:46.244Z,10.10
2023-04-19T06:39:31.865Z,8.25
2023-04-19T06:42:20.073Z,8.50
2023-04-19T06:45:06.114Z,8.32
2023-04-19T06:47:51.491Z,9.05
2023-04-19T06:50:36.835Z,8.38
2023-04-19T06:53:22.911Z,8.75
2023-04-19T06:56:09.143Z,8.77
2023-04-19T06:58:54.994Z,8.55
2023-04-19T07:01:41.434Z,8.05
2023-04-19T07:04:27.963Z,8.85
2023-04-19T07:07:13.461Z,8.02
2023-04-19T07:09:58.705Z,7.55
2023-04-19T07:12:44.414Z,8.10
2023-04-19T07:15:30.348Z,6.90
2023-04-19T07:18:16.354Z,7.25
2023-04-19T07:21:02.424Z,7.53
2023-04-19T07:23:50.644Z,7.70
2023-04-19T07:26:39.200Z,7.55
2023-04-19T07:29:24.584Z,7.85
2023-04-19T07:32:09.945Z,6.63
2023-04-19T07:34:55.562Z,6.45
2023-04-19T07:37:40.798Z,7.40
2023-04-19T07:40:26.366Z,6.50
2023-04-19T07:43:11.884Z,6.70
2023-04-19T07:45:57.534Z,6.43
2023-04-19T07:48:43.026Z,6.03
2023-04-19T07:51:29.242Z,6.50
2023-04-19T07:54:16.764Z,6.40
2023-04-19T07:57:03.529Z,5.80
2023-04-19T07:59:49.056Z,6.38
2023-04-19T08:02:34.435Z,6.10
2023-04-19T08:05:20.441Z,6.22
2023-04-19T08:08:05.962Z,5.80
2023-04-19T08:10:54.808Z,5.35
2023-04-19T08:13:40.522Z,5.03
2023-04-19T08:17:06.535Z,5.63
2023-04-19T08:19:38.495Z,5.53
2023-04-19T08:22:23.874Z,5.00
2023-04-19T08:25:09.900Z,5.10
2023-04-19T08:27:57.568Z,4.93
2023-04-19T08:30:43.093Z,5.03
2023-04-19T08:33:28.871Z,5.32
2023-04-19T08:36:17.140Z,5.30
2023-04-19T08:39:20.760Z,4.28
2023-04-19T08:42:28.804Z,4.15
2023-04-19T08:45:28.383Z,3.63
2023-04-19T08:48:15.794Z,3.78
2023-04-19T08:51:05.596Z,3.63
2023-04-19T08:53:51.638Z,3.88
2023-04-19T08:56:37.485Z,3.55
2023-04-19T08:59:22.913Z,3.88
2023-04-19T09:02:08.716Z,3.63
2023-04-19T09:04:54.973Z,3.60
2023-04-19T09:07:40.900Z,3.67
2023-04-19T09:10:29.296Z,3.72
2023-04-19T09:13:17.933Z,3.25
2023-04-19T09:16:05.484Z,3.40
2023-04-19T09:19:05.454Z,3.40
2023-04-19T09:21:59.926Z,3.53
2023-04-19T09:27:36.258Z,3.40
2023-04-19T09:30:32.368Z,3.70
2023-04-19T09:33:36.252Z,2.65
2023-04-19T09:36:31.454Z,2.75
2023-04-19T09:39:33.249Z,3.10
2023-04-19T09:42:36.057Z,2.72
2023-04-19T09:45:31.227Z,2.38
2023-04-19T09:48:16.697Z,2.67
2023-04-19T09:51:07.421Z,2.88
2023-04-19T09:53:56.124Z,3.00
2023-04-19T09:56:41.672Z,2.58
2023-04-19T09:59:28.523Z,3.10
2023-04-19T10:02:15.875Z,2.83
2023-04-19T10:07:50.334Z,2.92
2023-04-19T10:13:26.878Z,2.30
2023-04-19T10:16:19.472Z,2.47
2023-04-19T10:19:12.073Z,2.13
2023-04-19T10:21:58.226Z,2.13
2023-04-19T10:25:11.284Z,2.00
2023-04-19T10:27:57.333Z,2.08
2023-04-19T10:31:06.117Z,2.17
2023-04-19T10:33:51.728Z,2.00
2023-04-19T10:36:38.428Z,1.67
2023-04-19T10:39:43.761Z,2.20
2023-04-19T10:43:07.892Z,1.90
2023-04-19T10:45:53.703Z,1.70
2023-04-19T10:48:43.893Z,1.98
2023-04-19T10:51:34.383Z,2.30
2023-04-19T10:54:35.926Z,1.80
2023-04-19T10:57:21.693Z,1.85
2023-04-19T11:00:23.075Z,1.92
2023-04-19T11:03:48.324Z,1.95
2023-04-19T11:06:34.808Z,2.07
2023-04-19T11:09:29.031Z,2.00
2023-04-19T11:12:17.822Z,2.13
2023-04-19T11:15:05.388Z,2.30
2023-04-19T11:18:00.934Z,2.95
2023-04-19T11:20:54.940Z,1.63
2023-04-19T11:23:41.565Z,2.10
2023-04-19T11:26:27.285Z,1.80
2023-04-19T11:29:13.618Z,2.30
2023-04-19T11:32:00.646Z,2.10
2023-04-19T11:34:45.810Z,1.95
2023-04-19T11:37:36.497Z,1.80
2023-04-19T11:40:24.127Z,1.92
2023-04-19T11:43:09.615Z,1.70
2023-04-19T11:45:55.337Z,1.80
2023-04-19T11:48:52.954Z,1.67
2023-04-19T11:51:42.576Z,1.33
2023-04-19T11:54:28.563Z,1.38
2023-04-19T11:57:13.823Z,1.60
2023-04-19T12:00:12.174Z,2.50
2023-04-19T12:02:59.535Z,1.52
2023-04-19T12:05:59.037Z,1.20
2023-04-19T12:08:50.385Z,1.15
2023-04-19T12:11:51.719Z,1.48
2023-04-19T12:14:37.121Z,1.60
2023-04-19T12:17:22.493Z,1.30
2023-04-19T12:20:08.913Z,1.30
2023-04-19T12:22:54.201Z,1.40
2023-04-19T12:25:40.925Z,1.58
2023-04-19T12:28:26.293Z,2.25
2023-04-19T12:31:11.818Z,1.48
2023-04-19T12:33:57.094Z,1.90
2023-04-19T12:36:42.741Z,1.55
2023-04-19T12:39:28.905Z,1.95
2023-04-19T12:42:14.493Z,1.33
2023-04-19T12:44:59.764Z,1.70
2023-04-19T12:47:47.216Z,1.70
2023-04-19T12:50:32.753Z,1.55
2023-04-19T12:53:21.438Z,1.73
2023-04-19T12:56:07.498Z,1.70
2023-04-19T12:58:54.173Z,1.55
2023-04-19T13:01:39.673Z,1.50
2023-04-19T13:04:25.349Z,1.90
2023-04-19T13:07:10.984Z,1.90
2023-04-19T13:09:57.046Z,1.58
2023-04-19T13:12:42.503Z,1.90
2023-04-19T13:15:30.549Z,1.85
2023-04-19T13:18:16.083Z,1.83
2023-04-19T13:21:01.477Z,1.80
2023-04-19T13:23:46.933Z,1.70
2023-04-19T13:26:34.114Z,2.58
2023-04-19T13:29:19.600Z,2.10
2023-04-19T13:32:12.201Z,1.88
2023-04-19T13:34:57.697Z,1.98
2023-04-19T13:37:47.717Z,2.33
2023-04-19T13:40:33.002Z,3.45
2023-04-19T13:43:18.621Z,2.17
2023-04-19T13:46:04.100Z,2.55
2023-04-19T13:48:49.655Z,2.20
2023-04-19T13:51:46.331Z,1.98
2023-04-19T13:54:35.300Z,2.00
2023-04-19T13:57:26.757Z,2.35
2023-04-19T14:00:13.073Z,2.25
2023-04-19T14:02:59.015Z,2.22
2023-04-19T14:05:44.663Z,2.30
2023-04-19T14:08:30.854Z,1.80
2023-04-19T14:11:20.962Z,2.40
2023-04-19T14:14:06.539Z,2.10
2023-04-19T14:16:53.465Z,2.30
2023-04-19T14:19:38.881Z,2.30
2023-04-19T14:22:24.252Z,2.28
2023-04-19T14:25:10.212Z,1.85
2023-04-19T14:27:55.558Z,1.90
2023-04-19T14:30:41.027Z,1.85
2023-04-19T14:33:26.738Z,2.00
2023-04-19T14:36:12.584Z,1.85
2023-04-19T14:39:01.029Z,1.50
2023-04-19T14:41:46.426Z,1.80
2023-04-19T14:44:31.973Z,1.83
2023-04-19T14:47:17.539Z,1.90
2023-04-19T14:50:03.777Z,1.92
2023-04-19T14:52:48.757Z,1.92
2023-04-19T14:55:34.381Z,2.10
2023-04-19T14:58:19.748Z,1.70
2023-04-19T15:01:12.548Z,1.65
2023-04-19T15:03:58.141Z,1.65
2023-04-19T15:06:43.770Z,1.60
2023-04-19T15:09:29.140Z,1.95
2023-04-19T15:12:14.455Z,1.52
2023-04-19T15:15:01.875Z,1.80
2023-04-19T15:17:47.565Z,2.70
2023-04-19T15:20:33.078Z,2.00
2023-04-19T15:23:18.385Z,1.70
2023-04-19T15:26:04.006Z,1.90
2023-04-19T15:28:50.076Z,2.00
2023-04-19T15:31:35.163Z,1.98
2023-04-19T15:34:20.627Z,1.80
2023-04-19T15:37:06.565Z,1.70
2023-04-19T15:39:54.726Z,1.92
2023-04-19T15:42:40.342Z,2.10
2023-04-19T15:45:25.892Z,2.20
2023-04-19T15:48:11.196Z,2.42
2023-04-19T15:50:56.632Z,2.08
2023-04-19T15:53:42.566Z,2.55
2023-04-19T15:56:27.669Z,2.13
2023-04-19T15:59:13.084Z,2.38
2023-04-19T16:02:01.166Z,2.70
2023-04-19T16:04:48.123Z,2.30
2023-04-19T16:07:33.822Z,2.60
2023-04-19T16:10:19.302Z,2.97
2023-04-19T16:13:05.778Z,2.33
2023-04-19T16:15:51.233Z,2.30
2023-04-19T16:18:36.430Z,2.80
2023-04-19T16:21:22.261Z,3.30
2023-04-19T16:24:07.910Z,2.92
2023-04-19T16:26:53.376Z,2.88
2023-04-19T16:29:38.769Z,2.83
2023-04-19T16:32:24.233Z,2.60
2023-04-19T16:35:10.059Z,3.42
2023-04-19T16:37:57.654Z,3.22
2023-04-19T16:40:46.064Z,3.00
2023-04-19T16:43:34.122Z,3.13
2023-04-19T16:46:19.284Z,3.42
2023-04-19T16:49:04.638Z,3.10
2023-04-19T16:51:50.091Z,3.17
2023-04-19T16:54:35.920Z,3.10
2023-04-19T16:57:22.345Z,3.35
2023-04-19T17:00:08.949Z,3.47
2023-04-19T17:02:54.321Z,3.33
2023-04-19T17:05:40.412Z,3.40
2023-04-19T17:08:26.399Z,3.13
2023-04-19T17:11:11.355Z,3.55
2023-04-19T17:13:57.003Z,2.97
2023-04-19T17:16:42.307Z,3.15
2023-04-19T17:19:30.273Z,2.92
2023-04-19T17:22:16.319Z,3.20
2023-04-19T17:25:08.352Z,3.97
2023-04-19T17:27:53.644Z,3.78
2023-04-19T17:30:39.034Z,4.35
2023-04-19T17:33:24.368Z,4.30
2023-04-19T17:36:09.837Z,4.03
2023-04-19T17:38:55.265Z,4.35
2023-04-19T17:41:40.955Z,3.97
2023-04-19T17:44:29.321Z,3.50
2023-04-19T17:47:14.839Z,3.78
2023-04-19T17:50:10.728Z,3.90
2023-04-19T17:52:56.399Z,3.72
2023-04-19T17:55:41.563Z,4.38
2023-04-19T17:58:27.262Z,3.97
2023-04-19T18:01:13.356Z,4.47
2023-04-19T18:04:01.218Z,4.47
2023-04-19T18:06:47.075Z,4.47
2023-04-19T18:09:32.695Z,4.53
2023-04-19T18:12:21.109Z,4.25
2023-04-19T18:15:07.549Z,5.32
2023-04-19T18:17:52.928Z,5.47
2023-04-19T18:20:38.201Z,4.80
2023-04-19T18:23:23.497Z,4.18
2023-04-19T18:26:09.839Z,5.40
2023-04-19T18:28:55.321Z,5.10
2023-04-19T18:31:46.745Z,5.97
2023-04-19T18:34:31.988Z,5.03
2023-04-19T18:37:17.489Z,5.03
2023-04-19T18:40:06.905Z,5.03
2023-04-19T18:42:52.662Z,4.82
2023-04-19T18:45:38.152Z,5.20
2023-04-19T18:48:28.184Z,4.38
2023-04-19T18:51:13.869Z,4.05
2023-04-19T18:53:59.414Z,4.30
2023-04-19T18:59:34.346Z,4.75
2023-04-19T19:02:19.901Z,4.47
2023-04-19T19:05:07.429Z,4.55
2023-04-19T19:07:53.494Z,4.47
2023-04-19T19:11:07.207Z,3.83
2023-04-19T19:13:44.273Z,4.32
2023-04-19T19:16:31.017Z,4.22
2023-04-19T19:19:16.832Z,4.75
2023-04-19T19:22:09.527Z,4.57
2023-04-19T19:25:04.779Z,4.22
2023-04-19T19:28:06.262Z,4.68
2023-04-19T19:30:53.641Z,4.03
2023-04-19T19:33:40.859Z,4.72
2023-04-19T19:36:26.269Z,4.07
2023-04-19T19:39:11.867Z,4.10
2023-04-19T19:42:05.881Z,4.32
2023-04-19T19:44:55.705Z,3.70
2023-04-19T19:47:45.259Z,4.03
2023-04-19T19:53:19.780Z,4.05
2023-04-19T19:56:12.954Z,4.20
2023-04-19T19:59:02.188Z,4.07
2023-04-19T20:01:47.556Z,4.30
2023-04-19T20:04:34.993Z,4.25
2023-04-19T20:10:13.283Z,4.30
2023-04-19T20:12:58.788Z,4.13
2023-04-19T20:15:47.238Z,3.60
2023-04-19T20:18:34.981Z,4.05
2023-04-19T20:21:20.351Z,3.70
2023-04-19T20:24:06.145Z,3.45
2023-04-19T20:26:51.659Z,3.70
2023-04-19T20:29:37.309Z,3.47
2023-04-19T20:32:23.028Z,3.70
2023-04-19T20:35:11.817Z,3.83
2023-04-19T20:41:01.678Z,4.20
2023-04-19T20:43:47.155Z,4.10
2023-04-19T20:46:34.818Z,3.88
2023-04-19T20:49:20.043Z,3.67
2023-04-19T20:52:09.089Z,3.80
2023-04-19T20:54:56.245Z,4.35
2023-04-19T20:57:41.466Z,3.47
2023-04-19T21:00:27.060Z,4.22
2023-04-19T21:03:12.479Z,3.30
2023-04-19T21:05:58.091Z,3.90
2023-04-19T21:08:43.271Z,3.33
2023-04-19T21:11:28.813Z,3.72
2023-04-19T21:14:14.476Z,3.38
2023-04-19T21:17:01.409Z,3.20
2023-04-19T21:19:46.830Z,3.50
2023-04-19T21:22:32.013Z,2.83
2023-04-19T21:25:17.463Z,3.15
2023-04-19T21:28:03.087Z,3.22
2023-04-19T21:30:48.405Z,3.50
2023-04-19T21:33:33.782Z,2.90
2023-04-19T21:36:19.080Z,3.20
2023-04-19T21:39:04.795Z,3.33
2023-04-19T21:41:50.164Z,3.30
2023-04-19T21:44:38.350Z,3.83
2023-04-19T21:47:24.732Z,3.92
2023-04-19T21:50:10.677Z,3.20
2023-04-19T21:52:55.706Z,4.13
2023-04-19T21:55:41.146Z,3.30
2023-04-19T21:58:26.245Z,3.28
2023-04-19T22:01:11.684Z,3.80
2023-04-19T22:03:58.547Z,3.90
2023-04-19T22:06:45.991Z,3.55
2023-04-19T22:09:33.975Z,3.28
2023-04-19T22:12:19.703Z,3.28
2023-04-19T22:15:05.372Z,3.22
2023-04-19T22:17:51.850Z,2.92
2023-04-19T22:20:38.310Z,3.03
2023-04-19T22:23:23.713Z,3.50
2023-04-19T22:26:09.266Z,3.35
2023-04-19T22:28:54.678Z,3.00
2023-04-19T22:31:39.957Z,2.90
2023-04-19T22:34:25.205Z,2.97
2023-04-19T22:37:10.431Z,3.30
2023-04-19T22:40:01.502Z,2.88
2023-04-19T22:42:46.892Z,3.35
2023-04-19T22:45:32.146Z,3.53
2023-04-19T22:48:18.048Z,3.00
2023-04-19T22:51:03.131Z,2.90
2023-04-19T22:53:48.626Z,2.72
2023-04-19T22:56:34.228Z,3.10
2023-04-19T22:59:19.688Z,2.65
2023-04-19T23:02:05.567Z,3.38
2023-04-19T23:04:54.387Z,3.00
2023-04-19T23:07:42.522Z,2.88
2023-04-19T23:10:28.661Z,2.75
2023-04-19T23:13:15.752Z,2.53
2023-04-19T23:16:01.070Z,3.08
2023-04-19T23:18:46.780Z,3.42
2023-04-19T23:21:32.388Z,2.83
2023-04-19T23:24:19.521Z,3.45
2023-04-19T23:27:05.453Z,3.00
2023-04-19T23:29:53.496Z,3.25
2023-04-19T23:32:38.818Z,2.70
2023-04-19T23:35:24.388Z,2.28
2023-04-19T23:38:09.700Z,2.65
2023-04-19T23:40:55.289Z,2.70
2023-04-19T23:43:40.936Z,3.17
2023-04-19T23:46:26.242Z,3.25
2023-04-19T23:49:12.039Z,2.80
2023-04-19T23:51:57.462Z,3.00
2023-04-19T23:54:42.997Z,2.90
2023-04-19T23:57:28.362Z,3.00
